Ben-my-chree — MXLG6 — position and weather

sailwx.info

Track history (hours):
 
Tides and Currents Weather Stations Pressure Air Temp Water Temp Dewpoint Dewpoint Depression Visibility Wind Speed Wind Dir Waves Ship Positions

Ben-my-chree

Operator: The Isle of Man Steam Packet Co Ltd

Last reported at 2017-May-28 10:22 UTC. Time now 2017-May-28 12:24 UTC.
Position N 53°57' W 003°07'.

Length 120 m; draft 5 m.

Type: Passenger vessel. MMSI: 234983000.

Date/timePositionNaut miles runAvg speedWind from/ knotsBaromVisibWave heightAir tempDewpointWater temp
2017-May-28 10:22N 53°57' W 003°07'919.7
2017-May-28 09:55N 53°56' W 003°22'819.0
2017-May-28 09:30N 53°57' W 003°35'3312.6
2017-May-28 06:55N 54°09' W 004°27'0 0.0
2017-May-28 02:52N 54°09' W 004°26'2018.1
2017-May-28 01:45N 54°01' W 003°55'2617.2
2017-May-28 00:14N 53°56' W 003°11'415.7
2017-May-27 23:57N 53°57' W 003°05'7 2.2
2017-May-27 20:47N 54°02' W 002°55'714.0
2017-May-27 20:19N 53°58' W 003°04'516.6
2017-May-27 20:00N 53°56' W 003°12'713.3
2017-May-27 19:30N 53°55' W 003°23'918.0
2017-May-27 19:00N 53°58' W 003°38'29 8.2
2017-May-27 15:26N 54°09' W 004°24'1018.7
2017-May-27 14:56N 54°08' W 004°08'512.1
2017-May-27 14:31N 54°07' W 003°59'17 1.7
2017-May-27 04:51N 54°09' W 004°28'617.9
2017-May-27 04:29N 54°07' W 004°17'816.5
2017-May-27 03:59N 54°04' W 004°04'2315.2
2017-May-27 02:27N 53°56' W 003°27'816.2
2017-May-27 01:56N 53°56' W 003°13'818.6
2017-May-27 01:30N 53°59' W 003°01'4 1.2
2017-May-26 21:49N 54°02' W 002°55'617.8
2017-May-26 21:28N 53°58' W 003°03'920.1
2017-May-26 21:01N 53°55' W 003°18'918.9
2017-May-26 20:30N 53°57' W 003°34'34 7.9
2017-May-26 16:15N 54°09' W 004°28'516.9
2017-May-26 15:58N 54°08' W 004°20'1418.9
2017-May-26 15:13N 54°02' W 003°57'1119.3
2017-May-26 14:37N 53°58' W 003°39'619.3
2017-May-26 14:17N 53°56' W 003°29'1719.4
2017-May-26 13:25N 53°59' W 003°01'4 1.4
2017-May-26 10:16N 54°02' W 002°55'717.9
2017-May-26 09:54N 53°58' W 003°04'819.8
2017-May-26 09:30N 53°56' W 003°17'1019.0
2017-May-26 09:00N 53°56' W 003°33'1018.6
2017-May-26 08:29N 53°60' W 003°48'24 6.7
2017-May-26 04:54N 54°09' W 004°26'818.8
2017-May-26 04:30N 54°06' W 004°14'1317.5
2017-May-26 03:46N 54°01' W 003°54'1613.8
2017-May-26 02:38N 53°56' W 003°29'314.0
2017-May-26 02:25N 53°56' W 003°24'613.8
2017-May-26 01:57N 53°56' W 003°13'817.3
2017-May-26 01:30N 53°59' W 003°01'5 1.4
2017-May-25 22:21N 54°02' W 002°55'614.6
2017-May-25 21:59N 53°58' W 003°02'919.0
2017-May-25 21:30N 53°56' W 003°17'816.0
2017-May-25 21:01N 53°56' W 003°30'35 7.5
2017-May-25 16:18N 54°09' W 004°26'4518.6
2017-May-25 13:53N 53°56' W 003°13'820.6
2017-May-25 13:30N 53°59' W 003°01'4 1.9
2017-May-25 11:10N 54°02' W 002°55'0 0.0
2017-May-25 10:46N 54°02' W 002°55'5 9.7
2017-May-25 10:17N 53°59' W 003°01'2 4.9
2017-May-25 09:58N 53°60' W 002°59'715.5
2017-May-25 09:30N 53°56' W 003°09'1019.0
2017-May-25 09:00N 53°55' W 003°25'918.8
2017-May-25 08:30N 53°59' W 003°41'918.9
2017-May-25 08:00N 54°02' W 003°56'919.0
2017-May-25 07:30N 54°06' W 004°10'1019.0
2017-May-25 06:58N 54°09' W 004°27'1 0.7
2017-May-25 05:43N 54°09' W 004°28'0 0.0
2017-May-25 05:30N 54°09' W 004°28'3 6.4
2017-May-25 05:00N 54°09' W 004°23'712.7
2017-May-25 04:28N 54°06' W 004°13'816.9
2017-May-25 03:58N 54°02' W 003°59'1016.3
2017-May-25 03:20N 53°59' W 003°43'614.8
2017-May-25 02:54N 53°57' W 003°32'717.9
2017-May-25 02:30N 53°55' W 003°21'918.5
2017-May-25 02:00N 53°57' W 003°05'8 6.5
2017-May-25 00:49N 54°02' W 002°55'0 0.0
2017-May-24 22:05N 54°02' W 002°55'7 9.9
2017-May-24 21:25N 53°58' W 003°03'718.0
2017-May-24 21:00N 53°55' W 003°16'1518.9
2017-May-24 20:13N 53°58' W 003°41'419.1
2017-May-24 20:00N 53°60' W 003°47'25 8.3
2017-May-24 16:58N 54°09' W 004°27'1617.7
2017-May-24 16:05N 54°03' W 004°02'218.4
2017-May-24 15:59N 54°03' W 003°60'2018.4
2017-May-24 14:56N 53°56' W 003°29'918.6
2017-May-24 14:26N 53°56' W 003°13'8 1.9
2017-May-24 10:05N 53°59' W 003°00'218.3
2017-May-24 09:57N 53°58' W 003°03'818.1
2017-May-24 09:29N 53°56' W 003°17'918.0
2017-May-24 09:00N 53°56' W 003°32'35 9.4
2017-May-24 05:19N 54°09' W 004°27'1 3.5
2017-May-24 04:56N 54°09' W 004°24'1411.6
2017-May-24 03:45N 54°03' W 004°03'615.3
2017-May-24 03:22N 54°01' W 003°54'1517.8
2017-May-24 02:30N 53°56' W 003°29'1018.4
2017-May-24 01:56N 53°55' W 003°12'12 2.9
2017-May-23 22:00N 54°02' W 002°55'816.4
2017-May-23 21:29N 53°57' W 003°06'918.5
2017-May-23 21:00N 53°56' W 003°21'918.5
2017-May-23 20:30N 53°57' W 003°37'30 9.9
2017-May-23 17:27N 54°09' W 004°24'1317.1
2017-May-23 16:41N 54°04' W 004°04'617.5
2017-May-23 16:22N 54°02' W 003°55'1417.7
2017-May-23 15:35N 53°57' W 003°34'217.9
2017-May-23 15:28N 53°56' W 003°30'1018.0
2017-May-23 14:54N 53°56' W 003°13'9 3.4
2017-May-23 12:22N 53°60' W 002°60'615.7
2017-May-23 12:00N 53°56' W 003°08'816.9
2017-May-23 11:30N 53°56' W 003°22'816.7
2017-May-23 11:00N 53°57' W 003°36'917.4
2017-May-23 10:30N 54°00' W 003°50'24 8.2
2017-May-23 07:37N 54°09' W 004°27'215.7
2017-May-23 07:30N 54°09' W 004°24'917.3
2017-May-23 06:58N 54°05' W 004°10'816.7
2017-May-23 06:29N 54°02' W 003°57'1016.8
2017-May-23 05:53N 53°58' W 003°41'716.6
2017-May-23 05:28N 53°56' W 003°30'916.3
2017-May-23 04:56N 53°56' W 003°15'716.3
2017-May-23 04:30N 53°58' W 003°04'7 2.1
2017-May-23 01:25N 54°02' W 002°55'614.8
2017-May-23 00:59N 53°58' W 003°03'816.6
2017-May-23 00:30N 53°55' W 003°17'917.5
2017-May-23 00:00N 53°55' W 003°31'917.2
2017-May-22 23:30N 53°58' W 003°45'917.8
2017-May-22 23:00N 54°02' W 003°59'16 5.9
2017-May-22 20:15N 54°04' W 004°26'3 2.5
2017-May-22 19:00N 54°07' W 004°24'1 2.1
2017-May-22 18:22N 54°08' W 004°23'1 1.8
2017-May-22 17:37N 54°09' W 004°21'1 5.4
2017-May-22 17:30N 54°09' W 004°20'8 7.8
2017-May-22 16:28N 54°05' W 004°08'6 9.5
2017-May-22 15:49N 54°02' W 003°58'512.2
2017-May-22 15:26N 54°01' W 003°51'1417.6
2017-May-22 14:40N 53°56' W 003°30'1218.1
2017-May-22 14:00N 53°56' W 003°09'10 3.6
2017-May-22 11:14N 54°02' W 002°55'713.9
2017-May-22 10:45N 53°58' W 003°04'416.3
2017-May-22 10:30N 53°56' W 003°10'816.2
2017-May-22 10:00N 53°56' W 003°23'816.2
2017-May-22 09:30N 53°58' W 003°37'816.7
2017-May-22 09:01N 54°00' W 003°50'24 5.3
2017-May-22 04:31N 54°09' W 004°28'1 9.6
2017-May-22 04:27N 54°09' W 004°27'816.7
2017-May-22 04:00N 54°08' W 004°14'917.3
2017-May-22 03:29N 54°04' W 004°01'917.5
2017-May-22 03:00N 53°60' W 003°47'1017.7
2017-May-22 02:24N 53°56' W 003°31'1117.8
2017-May-22 01:48N 53°56' W 003°13'619.0
2017-May-22 01:30N 53°58' W 003°04'6 2.0
2017-May-21 22:13N 54°02' W 002°55'312.7
2017-May-21 21:59N 53°60' W 002°59'816.7
2017-May-21 21:30N 53°56' W 003°10'816.7
2017-May-21 21:00N 53°56' W 003°24'816.7
2017-May-21 20:30N 53°58' W 003°38'25 5.3
2017-May-21 15:53N 54°07' W 004°17'3217.1
2017-May-21 14:00N 53°56' W 003°26'917.8
2017-May-21 13:30N 53°56' W 003°11'11 4.4
2017-May-21 11:01N 54°02' W 002°56'714.6
2017-May-21 10:33N 53°57' W 003°04'116.3
2017-May-21 10:28N 53°57' W 003°06'816.4
2017-May-21 10:00N 53°55' W 003°19'816.3
2017-May-21 09:30N 53°56' W 003°33'816.5
2017-May-21 09:01N 53°59' W 003°46'10 1.5
2017-May-21 02:27N 53°56' W 003°30'716.7
2017-May-21 02:00N 53°56' W 003°17'816.6
2017-May-21 01:30N 53°58' W 003°03'6 1.9
2017-May-20 22:24N 54°02' W 002°56'715.3
2017-May-20 21:55N 53°57' W 003°05'716.6
2017-May-20 21:30N 53°56' W 003°16'817.1
2017-May-20 21:00N 53°56' W 003°31'917.2
2017-May-20 20:29N 53°59' W 003°45'4 0.8
2017-May-20 14:55N 53°58' W 003°38'716.6
2017-May-20 14:30N 53°56' W 003°27'12 3.1
2017-May-20 10:43N 53°57' W 003°07'516.9
2017-May-20 10:25N 53°56' W 003°16'717.2
2017-May-20 10:00N 53°56' W 003°28'817.1
2017-May-20 09:30N 53°58' W 003°41'28 7.0
2017-May-20 05:30N 54°09' W 004°25'1417.1
2017-May-20 04:40N 54°03' W 004°04'616.6
2017-May-20 04:19N 54°01' W 003°54'916.7
2017-May-20 03:46N 53°58' W 003°39'616.8
2017-May-20 03:24N 53°56' W 003°30'1016.3
2017-May-20 02:47N 53°55' W 003°12'516.4
2017-May-20 02:27N 53°58' W 003°04'0 0.1
2017-May-19 21:51N 53°57' W 003°04'716.9
2017-May-19 21:27N 53°55' W 003°15'817.1
2017-May-19 21:00N 53°56' W 003°28'917.1
2017-May-19 20:30N 53°58' W 003°41'917.5
2017-May-19 20:00N 54°01' W 003°55'917.8
2017-May-19 19:30N 54°05' W 004°09'1217.3
2017-May-19 18:50N 54°09' W 004°28'0 0.9
2017-May-19 18:26N 54°09' W 004°28'0 0.0
2017-May-19 17:59N 54°09' W 004°28'0 0.0
2017-May-19 17:29N 54°09' W 004°28'0 0.0
2017-May-19 16:59N 54°09' W 004°28'5 9.4
2017-May-19 16:31N 54°08' W 004°21'917.3
2017-May-19 15:58N 54°04' W 004°06'816.9
2017-May-19 15:30N 54°01' W 003°54'1117.1
2017-May-19 14:52N 53°57' W 003°36'1416.6
2017-May-19 14:00N 53°56' W 003°12'816.6
2017-May-19 13:30N 53°60' W 002°60'5 1.7
2017-May-19 10:40N 53°57' W 003°07'317.2
2017-May-19 10:30N 53°56' W 003°11'917.3
2017-May-19 10:00N 53°56' W 003°26'917.1
2017-May-19 09:29N 53°58' W 003°40'1117.1
2017-May-19 08:51N 54°02' W 003°58'1117.0
2017-May-19 08:11N 54°06' W 004°16'7 2.2
2017-May-19 05:10N 54°09' W 004°26'317.9
2017-May-19 05:01N 54°08' W 004°21'1117.7
2017-May-19 04:24N 54°04' W 004°04'2217.3
2017-May-19 03:08N 53°56' W 003°30'217.2
2017-May-19 03:00N 53°56' W 003°26'816.9
2017-May-19 02:30N 53°56' W 003°11'3 0.6
2017-May-18 21:57N 53°57' W 003°06'817.1
2017-May-18 21:30N 53°56' W 003°20'917.1
2017-May-18 21:00N 53°56' W 003°34'34 8.2
2017-May-18 16:52N 54°09' W 004°28'616.9
2017-May-18 16:29N 54°07' W 004°17'817.6
2017-May-18 16:00N 54°04' W 004°04'2217.4
2017-May-18 14:44N 53°56' W 003°29'1217.0
2017-May-18 14:00N 53°56' W 003°08'5 1.7
2017-May-18 11:13N 53°59' W 003°01'417.9
2017-May-18 11:00N 53°57' W 003°06'917.6
2017-May-18 10:30N 53°55' W 003°21'  
Track history (hours):
 
Tides and Currents Weather Stations Pressure Air Temp Water Temp Dewpoint Dewpoint Depression Visibility Wind Speed Wind Dir Waves Ship Positions

Ben-my-chree

Operator: The Isle of Man Steam Packet Co Ltd

Last reported at 2017-May-28 10:22 UTC. Time now 2017-May-28 12:24 UTC.
Position N 53°57' W 003°07'.

Length 120 m; draft 5 m.

Type: Passenger vessel. MMSI: 234983000.

Date/timePositionNaut miles runAvg speedWind from/ knotsBaromVisibWave heightAir tempDewpointWater temp
2017-May-28 10:22N 53°57' W 003°07'919.7
2017-May-28 09:55N 53°56' W 003°22'819.0
2017-May-28 09:30N 53°57' W 003°35'3312.6
2017-May-28 06:55N 54°09' W 004°27'0 0.0
2017-May-28 02:52N 54°09' W 004°26'2018.1
2017-May-28 01:45N 54°01' W 003°55'2617.2
2017-May-28 00:14N 53°56' W 003°11'415.7
2017-May-27 23:57N 53°57' W 003°05'7 2.2
2017-May-27 20:47N 54°02' W 002°55'714.0
2017-May-27 20:19N 53°58' W 003°04'516.6
2017-May-27 20:00N 53°56' W 003°12'713.3
2017-May-27 19:30N 53°55' W 003°23'918.0
2017-May-27 19:00N 53°58' W 003°38'29 8.2
2017-May-27 15:26N 54°09' W 004°24'1018.7
2017-May-27 14:56N 54°08' W 004°08'512.1
2017-May-27 14:31N 54°07' W 003°59'17 1.7
2017-May-27 04:51N 54°09' W 004°28'617.9
2017-May-27 04:29N 54°07' W 004°17'816.5
2017-May-27 03:59N 54°04' W 004°04'2315.2
2017-May-27 02:27N 53°56' W 003°27'816.2
2017-May-27 01:56N 53°56' W 003°13'818.6
2017-May-27 01:30N 53°59' W 003°01'4 1.2
2017-May-26 21:49N 54°02' W 002°55'617.8
2017-May-26 21:28N 53°58' W 003°03'920.1
2017-May-26 21:01N 53°55' W 003°18'918.9
2017-May-26 20:30N 53°57' W 003°34'34 7.9
2017-May-26 16:15N 54°09' W 004°28'516.9
2017-May-26 15:58N 54°08' W 004°20'1418.9
2017-May-26 15:13N 54°02' W 003°57'1119.3
2017-May-26 14:37N 53°58' W 003°39'619.3
2017-May-26 14:17N 53°56' W 003°29'1719.4
2017-May-26 13:25N 53°59' W 003°01'4 1.4
2017-May-26 10:16N 54°02' W 002°55'717.9
2017-May-26 09:54N 53°58' W 003°04'819.8
2017-May-26 09:30N 53°56' W 003°17'1019.0
2017-May-26 09:00N 53°56' W 003°33'1018.6
2017-May-26 08:29N 53°60' W 003°48'24 6.7
2017-May-26 04:54N 54°09' W 004°26'818.8
2017-May-26 04:30N 54°06' W 004°14'1317.5
2017-May-26 03:46N 54°01' W 003°54'1613.8
2017-May-26 02:38N 53°56' W 003°29'314.0
2017-May-26 02:25N 53°56' W 003°24'613.8
2017-May-26 01:57N 53°56' W 003°13'817.3
2017-May-26 01:30N 53°59' W 003°01'5 1.4
2017-May-25 22:21N 54°02' W 002°55'614.6
2017-May-25 21:59N 53°58' W 003°02'919.0
2017-May-25 21:30N 53°56' W 003°17'816.0
2017-May-25 21:01N 53°56' W 003°30'35 7.5
2017-May-25 16:18N 54°09' W 004°26'4518.6
2017-May-25 13:53N 53°56' W 003°13'820.6
2017-May-25 13:30N 53°59' W 003°01'4 1.9
2017-May-25 11:10N 54°02' W 002°55'0 0.0
2017-May-25 10:46N 54°02' W 002°55'5 9.7
2017-May-25 10:17N 53°59' W 003°01'2 4.9
2017-May-25 09:58N 53°60' W 002°59'715.5
2017-May-25 09:30N 53°56' W 003°09'1019.0
2017-May-25 09:00N 53°55' W 003°25'918.8
2017-May-25 08:30N 53°59' W 003°41'918.9
2017-May-25 08:00N 54°02' W 003°56'919.0
2017-May-25 07:30N 54°06' W 004°10'1019.0
2017-May-25 06:58N 54°09' W 004°27'1 0.7
2017-May-25 05:43N 54°09' W 004°28'0 0.0
2017-May-25 05:30N 54°09' W 004°28'3 6.4
2017-May-25 05:00N 54°09' W 004°23'712.7
2017-May-25 04:28N 54°06' W 004°13'816.9
2017-May-25 03:58N 54°02' W 003°59'1016.3
2017-May-25 03:20N 53°59' W 003°43'614.8
2017-May-25 02:54N 53°57' W 003°32'717.9
2017-May-25 02:30N 53°55' W 003°21'918.5
2017-May-25 02:00N 53°57' W 003°05'8 6.5
2017-May-25 00:49N 54°02' W 002°55'0 0.0
2017-May-24 22:05N 54°02' W 002°55'7 9.9
2017-May-24 21:25N 53°58' W 003°03'718.0
2017-May-24 21:00N 53°55' W 003°16'1518.9
2017-May-24 20:13N 53°58' W 003°41'419.1
2017-May-24 20:00N 53°60' W 003°47'25 8.3
2017-May-24 16:58N 54°09' W 004°27'1617.7
2017-May-24 16:05N 54°03' W 004°02'218.4
2017-May-24 15:59N 54°03' W 003°60'2018.4
2017-May-24 14:56N 53°56' W 003°29'918.6
2017-May-24 14:26N 53°56' W 003°13'8 1.9
2017-May-24 10:05N 53°59' W 003°00'218.3
2017-May-24 09:57N 53°58' W 003°03'818.1
2017-May-24 09:29N 53°56' W 003°17'918.0
2017-May-24 09:00N 53°56' W 003°32'35 9.4
2017-May-24 05:19N 54°09' W 004°27'1 3.5
2017-May-24 04:56N 54°09' W 004°24'1411.6
2017-May-24 03:45N 54°03' W 004°03'615.3
2017-May-24 03:22N 54°01' W 003°54'1517.8
2017-May-24 02:30N 53°56' W 003°29'1018.4
2017-May-24 01:56N 53°55' W 003°12'12 2.9
2017-May-23 22:00N 54°02' W 002°55'816.4
2017-May-23 21:29N 53°57' W 003°06'918.5
2017-May-23 21:00N 53°56' W 003°21'918.5
2017-May-23 20:30N 53°57' W 003°37'30 9.9
2017-May-23 17:27N 54°09' W 004°24'1317.1
2017-May-23 16:41N 54°04' W 004°04'617.5
2017-May-23 16:22N 54°02' W 003°55'1417.7
2017-May-23 15:35N 53°57' W 003°34'217.9
2017-May-23 15:28N 53°56' W 003°30'1018.0
2017-May-23 14:54N 53°56' W 003°13'9 3.4
2017-May-23 12:22N 53°60' W 002°60'615.7
2017-May-23 12:00N 53°56' W 003°08'816.9
2017-May-23 11:30N 53°56' W 003°22'816.7
2017-May-23 11:00N 53°57' W 003°36'917.4
2017-May-23 10:30N 54°00' W 003°50'24 8.2
2017-May-23 07:37N 54°09' W 004°27'215.7
2017-May-23 07:30N 54°09' W 004°24'917.3
2017-May-23 06:58N 54°05' W 004°10'816.7
2017-May-23 06:29N 54°02' W 003°57'1016.8
2017-May-23 05:53N 53°58' W 003°41'716.6
2017-May-23 05:28N 53°56' W 003°30'916.3
2017-May-23 04:56N 53°56' W 003°15'716.3
2017-May-23 04:30N 53°58' W 003°04'7 2.1
2017-May-23 01:25N 54°02' W 002°55'614.8
2017-May-23 00:59N 53°58' W 003°03'816.6
2017-May-23 00:30N 53°55' W 003°17'917.5
2017-May-23 00:00N 53°55' W 003°31'917.2
2017-May-22 23:30N 53°58' W 003°45'917.8
2017-May-22 23:00N 54°02' W 003°59'16 5.9
2017-May-22 20:15N 54°04' W 004°26'3 2.5
2017-May-22 19:00N 54°07' W 004°24'1 2.1
2017-May-22 18:22N 54°08' W 004°23'1 1.8
2017-May-22 17:37N 54°09' W 004°21'1 5.4
2017-May-22 17:30N 54°09' W 004°20'8 7.8
2017-May-22 16:28N 54°05' W 004°08'6 9.5
2017-May-22 15:49N 54°02' W 003°58'512.2
2017-May-22 15:26N 54°01' W 003°51'1417.6
2017-May-22 14:40N 53°56' W 003°30'1218.1
2017-May-22 14:00N 53°56' W 003°09'10 3.6
2017-May-22 11:14N 54°02' W 002°55'713.9
2017-May-22 10:45N 53°58' W 003°04'416.3
2017-May-22 10:30N 53°56' W 003°10'816.2
2017-May-22 10:00N 53°56' W 003°23'816.2
2017-May-22 09:30N 53°58' W 003°37'816.7
2017-May-22 09:01N 54°00' W 003°50'24 5.3
2017-May-22 04:31N 54°09' W 004°28'1 9.6
2017-May-22 04:27N 54°09' W 004°27'816.7
2017-May-22 04:00N 54°08' W 004°14'917.3
2017-May-22 03:29N 54°04' W 004°01'917.5
2017-May-22 03:00N 53°60' W 003°47'1017.7
2017-May-22 02:24N 53°56' W 003°31'1117.8
2017-May-22 01:48N 53°56' W 003°13'619.0
2017-May-22 01:30N 53°58' W 003°04'6 2.0
2017-May-21 22:13N 54°02' W 002°55'312.7
2017-May-21 21:59N 53°60' W 002°59'816.7
2017-May-21 21:30N 53°56' W 003°10'816.7
2017-May-21 21:00N 53°56' W 003°24'816.7
2017-May-21 20:30N 53°58' W 003°38'25 5.3
2017-May-21 15:53N 54°07' W 004°17'3217.1
2017-May-21 14:00N 53°56' W 003°26'917.8
2017-May-21 13:30N 53°56' W 003°11'11 4.4
2017-May-21 11:01N 54°02' W 002°56'714.6
2017-May-21 10:33N 53°57' W 003°04'116.3
2017-May-21 10:28N 53°57' W 003°06'816.4
2017-May-21 10:00N 53°55' W 003°19'816.3
2017-May-21 09:30N 53°56' W 003°33'816.5
2017-May-21 09:01N 53°59' W 003°46'10 1.5
2017-May-21 02:27N 53°56' W 003°30'716.7
2017-May-21 02:00N 53°56' W 003°17'816.6
2017-May-21 01:30N 53°58' W 003°03'6 1.9
2017-May-20 22:24N 54°02' W 002°56'715.3
2017-May-20 21:55N 53°57' W 003°05'716.6
2017-May-20 21:30N 53°56' W 003°16'817.1
2017-May-20 21:00N 53°56' W 003°31'917.2
2017-May-20 20:29N 53°59' W 003°45'4 0.8
2017-May-20 14:55N 53°58' W 003°38'716.6
2017-May-20 14:30N 53°56' W 003°27'12 3.1
2017-May-20 10:43N 53°57' W 003°07'516.9
2017-May-20 10:25N 53°56' W 003°16'717.2
2017-May-20 10:00N 53°56' W 003°28'817.1
2017-May-20 09:30N 53°58' W 003°41'28 7.0
2017-May-20 05:30N 54°09' W 004°25'1417.1
2017-May-20 04:40N 54°03' W 004°04'616.6
2017-May-20 04:19N 54°01' W 003°54'916.7
2017-May-20 03:46N 53°58' W 003°39'616.8
2017-May-20 03:24N 53°56' W 003°30'1016.3
2017-May-20 02:47N 53°55' W 003°12'516.4
2017-May-20 02:27N 53°58' W 003°04'0 0.1
2017-May-19 21:51N 53°57' W 003°04'716.9
2017-May-19 21:27N 53°55' W 003°15'817.1
2017-May-19 21:00N 53°56' W 003°28'917.1
2017-May-19 20:30N 53°58' W 003°41'917.5
2017-May-19 20:00N 54°01' W 003°55'917.8
2017-May-19 19:30N 54°05' W 004°09'1217.3
2017-May-19 18:50N 54°09' W 004°28'0 0.9
2017-May-19 18:26N 54°09' W 004°28'0 0.0
2017-May-19 17:59N 54°09' W 004°28'0 0.0
2017-May-19 17:29N 54°09' W 004°28'0 0.0
2017-May-19 16:59N 54°09' W 004°28'5 9.4
2017-May-19 16:31N 54°08' W 004°21'917.3
2017-May-19 15:58N 54°04' W 004°06'816.9
2017-May-19 15:30N 54°01' W 003°54'1117.1
2017-May-19 14:52N 53°57' W 003°36'1416.6
2017-May-19 14:00N 53°56' W 003°12'816.6
2017-May-19 13:30N 53°60' W 002°60'5 1.7
2017-May-19 10:40N 53°57' W 003°07'317.2
2017-May-19 10:30N 53°56' W 003°11'917.3
2017-May-19 10:00N 53°56' W 003°26'917.1
2017-May-19 09:29N 53°58' W 003°40'1117.1
2017-May-19 08:51N 54°02' W 003°58'1117.0
2017-May-19 08:11N 54°06' W 004°16'7 2.2
2017-May-19 05:10N 54°09' W 004°26'317.9
2017-May-19 05:01N 54°08' W 004°21'1117.7
2017-May-19 04:24N 54°04' W 004°04'2217.3
2017-May-19 03:08N 53°56' W 003°30'217.2
2017-May-19 03:00N 53°56' W 003°26'816.9
2017-May-19 02:30N 53°56' W 003°11'3 0.6
2017-May-18 21:57N 53°57' W 003°06'817.1
2017-May-18 21:30N 53°56' W 003°20'917.1
2017-May-18 21:00N 53°56' W 003°34'34 8.2
2017-May-18 16:52N 54°09' W 004°28'616.9
2017-May-18 16:29N 54°07' W 004°17'817.6
2017-May-18 16:00N 54°04' W 004°04'2217.4
2017-May-18 14:44N 53°56' W 003°29'1217.0
2017-May-18 14:00N 53°56' W 003°08'5 1.7
2017-May-18 11:13N 53°59' W 003°01'417.9
2017-May-18 11:00N 53°57' W 003°06'917.6
2017-May-18 10:30N 53°55' W 003°21'  

Dump ship's entire track history